Latest Weather Observations for Edinburgh

IDS60801

Issued at 10:01 am CST Thursday 26 May 2016 (issued every 30 minutes, with the page automatically refreshed every 10 minutes)

About weather observations | Map of weather stations | Latest weather observations for SA | Other Formats
Station Details ID: 023083 Name: EDINBURGH RAAF Lat: -34.71 Lon: 138.62 Height: 16.54 m
Data from the previous 72 hours. | See also: Recent months at Edinburgh
Date/Time
CST
Temp
°C
App
Temp
°C
Dew
Point
Rel
Hum
%
Delta-T
°C
Wind Press
QNH
hPa
Press
MSL
hPa
Rain
since 9 am
mm
Dir
 
Spd
km/h
Gust
km/h
Spd
kts
Gust
kts
26/10:00am 14.6 13.2 10.8 78 2.0 SSW 9 15 5 8 1010.2 1010.1 0.0
26/09:30am 14.0 12.6 11.0 82 1.6 S 9 13 5 7 1010.0 1009.9 0.0
26/09:00am 13.1 11.0 11.0 87 1.1 S 13 20 7 11 1010.0 1009.9 29.0
26/08:30am 13.3 13.2 12.2 93 0.6 NNW 4 7 2 4 1009.7 1009.6 29.0
26/08:00am 11.6 11.7 10.3 92 0.7 CALM 0 0 0 0 1009.5 1009.4 29.0
26/07:30am 12.1 12.3 10.7 91 0.7 CALM 0 0 0 0 1009.1 1009.0 29.0
26/07:00am 12.5 12.9 11.1 91 0.7 CALM 0 0 0 0 1008.9 1008.8 28.8
26/06:30am 12.8 11.5 11.4 91 0.7 S 9 17 5 9 1008.5 1008.5 28.6
26/06:00am 12.8 11.2 11.5 92 0.7 SW 11 15 6 8 1008.2 1008.2 28.6
26/05:30am 12.8 11.6 11.5 92 0.7 WNW 9 11 5 6 1008.0 1008.0 28.6
26/05:00am 12.9 10.9 11.6 92 0.7 SSW 13 17 7 9 1007.8 1007.8 28.2
26/04:30am 12.7 10.8 11.8 94 0.5 WSW 13 19 7 10 1007.6 1007.6 28.2
26/04:00am 12.3 12.0 11.4 94 0.5 SW 4 6 2 3 1007.1 1007.1 28.0
26/03:30am 12.3 11.4 11.4 94 0.5 WNW 7 9 4 5 1007.1 1007.1 28.0
26/03:00am 12.7 11.6 11.8 94 0.5 WNW 9 11 5 6 1007.0 1007.0 28.0
26/02:57am 12.7 11.6 11.8 94 0.5 WNW 9 11 5 6 1007.0 1007.0 28.0
26/02:46am 12.4 11.5 11.5 94 0.5 WNW 7 9 4 5 1006.9 1006.9 28.0
26/02:32am 12.6 11.8 11.7 94 0.5 NW 7 9 4 5 1006.8 1006.8 28.0
26/02:30am 12.8 12.1 11.9 94 0.5 NW 7 9 4 5 1006.8 1006.8 28.0
26/02:00am 13.7 13.2 12.8 94 0.5 WNW 7 9 4 5 1006.8 1006.8 28.0
26/01:30am 13.6 13.1 12.7 94 0.5 NW 7 9 4 5 1006.7 1006.7 27.8
26/01:27am 13.6 13.1 12.7 94 0.5 NW 7 11 4 6 1006.7 1006.7 27.8
26/01:26am 13.6 12.7 12.7 94 0.5 NW 9 11 5 6 1006.7 1006.7 27.8
26/01:00am 13.6 12.0 12.7 94 0.5 NW 13 17 7 9 1006.8 1006.8 27.6
26/12:30am 13.6 10.8 12.7 94 0.5 NNW 19 22 10 12 1007.0 1007.0 25.8
26/12:10am 13.5 10.5 12.6 94 0.5 NNW 20 26 11 14 1007.0 1007.0 24.2
26/12:00am 13.6 10.6 12.7 94 0.5 NNW 20 26 11 14 1007.2 1007.2 23.6
 
Date/Time
CST
Temp
°C
App
Temp
°C
Dew
Point
Rel
Hum
%
Delta-T
°C
Wind Press
QNH
hPa
Press
MSL
hPa
Rain
since 9 am
mm
Dir
 
Spd
km/h
Gust
km/h
Spd
kts
Gust
kts
25/11:36pm 13.6 10.6 12.7 94 0.5 NNW 20 24 11 13 1007.2 1007.2 21.4
25/11:30pm 13.7 10.8 12.8 94 0.5 NW 20 26 11 14 1007.1 1007.1 21.0
25/11:00pm 13.5 11.1 12.6 94 0.5 NNW 17 24 9 13 1007.0 1007.0 19.2
25/10:30pm 13.3 11.2 12.4 94 0.5 N 15 20 8 11 1006.9 1006.9 18.8
25/10:00pm 13.3 11.2 12.4 94 0.5 NNW 15 20 8 11 1007.7 1007.7 17.6
25/09:39pm 13.2 10.1 12.3 94 0.5 NNW 20 28 11 15 1007.9 1007.9 16.0
25/09:30pm 13.1 10.2 12.2 94 0.5 NNW 19 26 10 14 1008.0 1008.0 15.0
25/09:00pm 13.0 9.4 11.9 93 0.6 NNW 22 28 12 15 1007.8 1007.8 12.4
25/08:38pm 13.1 10.5 12.0 93 0.6 NNW 17 22 9 12 1007.7 1007.7 9.0
25/08:30pm 13.1 10.5 12.0 93 0.6 NNW 17 22 9 12 1007.6 1007.6 8.2
25/08:00pm 13.0 10.7 11.7 92 0.7 N 15 22 8 12 1007.6 1007.6 7.8
25/07:30pm 13.0 10.3 11.7 92 0.7 NNW 17 20 9 11 1007.8 1007.8 7.4
25/07:00pm 13.1 9.9 11.8 92 0.7 NNW 20 26 11 14 1007.6 1007.6 6.6
25/06:30pm 13.3 10.1 11.9 91 0.8 NNW 20 28 11 15 1007.5 1007.5 6.0
25/06:00pm 13.4 9.4 11.8 90 0.9 NW 24 33 13 18 1007.6 1007.6 5.6
25/05:30pm 13.6 9.6 11.8 89 1.0 NNW 24 35 13 19 1007.6 1007.6 5.4
25/05:11pm 13.9 9.5 11.8 87 1.1 NNW 26 35 14 19 1007.7 1007.7 5.4
25/05:00pm 14.1 10.2 12.0 87 1.1 N 24 32 13 17 1007.4 1007.4 5.4
25/04:30pm 14.1 11.0 12.1 88 1.1 NNW 20 28 11 15 1007.6 1007.6 5.2
25/04:25pm 14.1 10.6 12.1 88 1.1 NNW 22 30 12 16 1007.7 1007.7 5.2
25/04:24pm 14.1 10.6 12.1 88 1.1 NNW 22 30 12 16 1007.7 1007.7 5.2
25/04:14pm 14.1 11.1 12.1 88 1.1 NNW 19 26 10 14 1007.9 1007.9 5.2
25/04:11pm 14.2 11.6 12.1 87 1.1 NNW 17 24 9 13 1008.0 1008.0 5.0
25/04:00pm 14.4 12.7 12.4 88 1.1 N 13 19 7 10 1008.1 1008.1 4.2
25/03:30pm 14.7 12.7 12.7 88 1.1 N 15 20 8 11 1007.8 1007.8 3.8
25/03:00pm 14.9 12.9 12.6 86 1.3 NNW 15 20 8 11 1007.6 1007.6 3.6
25/02:30pm 14.7 13.0 12.4 86 1.3 N 13 17 7 9 1007.6 1007.6 3.6
25/02:00pm 14.6 11.5 12.1 85 1.4 N 20 30 11 16 1007.5 1007.5 3.4
25/01:30pm 14.2 9.7 11.5 84 1.4 N 26 37 14 20 1008.1 1008.1 3.4
25/01:18pm 14.1 10.0 11.4 84 1.4 N 24 32 13 17 1008.3 1008.3 3.4
25/01:00pm 14.1 9.7 11.6 85 1.3 N 26 33 14 18 1008.8 1008.7 3.4
25/12:30pm 13.6 9.1 11.3 86 1.2 N 26 33 14 18 1009.3 1009.2 3.4
25/12:20pm 13.4 8.8 11.1 86 1.2 N 26 35 14 19 1009.3 1009.2 3.4
25/12:00pm 13.1 8.9 11.2 88 1.0 N 24 33 13 18 1009.9 1009.8 3.4
25/11:30am 12.4 7.7 10.6 89 0.9 N 26 33 14 18 1010.8 1010.7 3.4
25/11:00am 11.9 6.6 9.8 87 1.1 N 28 39 15 21 1011.5 1011.4 2.8
25/10:30am 12.0 6.3 9.7 86 1.2 N 30 41 16 22 1012.0 1011.9 2.2
25/10:00am 11.7 6.7 9.6 87 1.1 N 26 33 14 18 1012.5 1012.4 1.6
25/09:30am 11.7 6.5 8.9 83 1.4 N 26 35 14 19 1012.8 1012.7 0.8
25/09:00am 11.9 7.4 8.4 79 1.7 N 22 30 12 16 1013.1 1013.0 2.0
25/08:30am 12.3 8.6 8.0 75 2.1 N 17 24 9 13 1013.1 1013.0 1.6
25/08:00am 12.2 8.1 7.7 74 2.2 N 19 28 10 15 1013.0 1012.9 1.4
25/07:30am 12.3 8.5 7.6 73 2.3 NNE 17 24 9 13 1013.0 1012.9 1.2
25/07:00am 11.9 7.7 7.6 75 2.1 NNE 19 22 10 12 1013.2 1013.1 1.0
25/06:30am 11.6 7.9 7.9 78 1.8 NE 17 20 9 11 1012.9 1012.8 1.0
25/06:00am 11.4 8.4 7.9 79 1.7 NE 13 15 7 8 1013.0 1012.9 1.0
25/05:30am 11.5 8.1 7.8 78 1.8 NNE 15 20 8 11 1013.6 1013.5 1.0
25/05:00am 11.7 8.6 7.4 75 2.1 NE 13 15 7 8 1014.0 1013.9 0.4
25/04:30am 12.5 8.5 6.8 68 2.7 NE 17 20 9 11 1014.2 1014.1 0.2
25/04:00am 12.7 9.0 6.1 64 3.1 N 15 22 8 12 1014.2 1014.1 0.2
25/03:30am 14.4 9.8 3.5 48 4.9 N 17 28 9 15 1014.0 1013.9 0.2
25/03:00am 14.6 12.8 3.4 47 5.1 E 2 7 1 4 1014.2 1014.1 0.2
25/02:30am 14.7 11.7 4.1 49 4.9 ENE 9 15 5 8 1013.8 1013.7 0.2
25/02:00am 14.4 9.2 3.5 48 4.9 NE 20 26 11 14 1013.6 1013.5 0.0
25/01:30am 15.5 9.1 0.9 37 6.3 NE 24 30 13 16 1013.2 1013.1 0.0
25/01:00am 15.1 9.1 0.9 38 6.1 NE 22 28 12 15 1013.4 1013.3 0.0
25/12:30am 14.8 9.5 1.7 41 5.7 NE 19 24 10 13 1014.2 1014.1 0.0
25/12:00am 14.9 9.0 1.8 41 5.7 NE 22 28 12 15 1014.4 1014.3 0.0
 
Date/Time
CST
Temp
°C
App
Temp
°C
Dew
Point
Rel
Hum
%
Delta-T
°C
Wind Press
QNH
hPa
Press
MSL
hPa
Rain
since 9 am
mm
Dir
 
Spd
km/h
Gust
km/h
Spd
kts
Gust
kts
24/11:30pm 14.5 8.2 1.8 42 5.5 NE 24 30 13 16 1014.7 1014.7 0.0
24/11:00pm 14.3 8.3 1.2 41 5.6 NE 22 28 12 15 1015.0 1015.0 0.0
24/10:30pm 14.0 8.0 1.0 41 5.6 NE 22 28 12 15 1015.4 1015.4 0.0
24/10:00pm 13.9 8.1 -0.2 38 5.9 NE 20 24 11 13 1015.9 1015.9 0.0
24/09:30pm 13.8 8.3 0.5 40 5.6 NE 19 22 10 12 1016.2 1016.2 0.0
24/09:00pm 13.1 7.8 1.8 46 4.9 NE 19 22 10 12 1016.5 1016.5 0.0
24/08:30pm 12.7 8.0 3.4 53 4.1 NE 17 20 9 11 1016.8 1016.8 0.0
24/08:00pm 12.0 8.4 5.0 62 3.2 NE 13 17 7 9 1017.1 1017.1 0.0
24/07:30pm 12.4 9.2 5.1 61 3.4 NE 11 15 6 8 1017.0 1017.0 0.0
24/07:00pm 13.1 10.3 5.0 58 3.8 NNE 9 11 5 6 1017.0 1017.0 0.0
24/06:30pm 13.6 10.8 5.3 57 3.9 NNE 9 13 5 7 1016.8 1016.8 0.0
24/06:00pm 15.1 11.8 4.8 50 4.8 NNE 11 13 6 7 1016.8 1016.8 0.0
24/05:30pm 16.0 12.3 4.7 47 5.3 N 13 15 7 8 1016.9 1016.9 0.0
24/05:00pm 18.0 14.7 4.6 41 6.4 N 11 13 6 7 1016.7 1016.7 0.0
24/04:30pm 20.1 15.9 3.8 34 7.8 N 15 20 8 11 1016.9 1016.9 0.0
24/04:00pm 20.7 16.0 3.4 32 8.2 N 17 22 9 12 1017.3 1017.3 0.0
24/03:30pm 20.9 15.7 2.7 30 8.5 N 19 24 10 13 1017.5 1017.5 0.0
24/03:00pm 21.2 16.1 4.3 33 8.2 N 20 30 11 16 1017.7 1017.7 0.0
24/02:30pm 21.0 16.2 5.8 37 7.6 N 20 30 11 16 1018.0 1018.0 0.0
24/02:00pm 20.8 16.4 6.7 40 7.1 NNE 19 26 10 14 1018.3 1018.3 0.0
24/01:30pm 20.4 15.9 6.0 39 7.2 N 19 24 10 13 1018.8 1018.8 0.0
24/01:00pm 20.3 16.5 5.9 39 7.2 N 15 26 8 14 1019.6 1019.6 0.0
24/12:30pm 19.6 16.2 9.2 51 5.5 NNE 17 24 9 13 1020.1 1020.1 0.0
24/12:00pm 19.0 16.2 10.0 56 4.8 NNE 15 22 8 12 1020.9 1020.9 0.0
24/11:30am 17.9 15.2 10.3 61 4.0 NNE 15 20 8 11 1021.8 1021.8 0.0
24/11:00am 16.9 13.7 9.8 63 3.7 NNE 17 20 9 11 1022.7 1022.7 0.0
24/10:30am 15.7 12.9 10.0 69 3.0 NNE 15 19 8 10 1023.4 1023.4 0.0
24/10:00am 14.5 12.3 10.9 79 1.9 NE 13 15 7 8 1023.6 1023.6 0.0
24/09:30am 13.4 12.5 11.5 88 1.0 NE 7 9 4 5 1023.7 1023.7 0.0
24/09:00am 11.8 10.1 10.0 89 0.9 ENE 9 11 5 6 1023.8 1023.8 0.0
24/08:30am 10.5 9.0 9.3 92 0.6 ENE 7 7 4 4 1023.8 1023.8 0.0
24/08:00am 9.7 8.0 8.5 92 0.6 ENE 7 7 4 4 1023.8 1023.8 0.0
24/07:30am 9.1 7.2 7.7 91 0.7 NE 7 9 4 5 1023.4 1023.4 0.0
24/07:00am 8.4 6.0 7.0 91 0.7 NE 9 11 5 6 1022.9 1022.9 0.0
24/06:30am 9.3 7.1 7.7 90 0.8 NE 9 11 5 6 1022.8 1022.8 0.0
24/06:00am 10.0 7.9 8.4 90 0.8 ENE 9 9 5 5 1022.5 1022.5 0.0
24/05:30am 10.3 8.3 8.7 90 0.8 NE 9 13 5 7 1022.4 1022.4 0.0
24/05:00am 10.4 8.4 8.8 90 0.8 ENE 9 15 5 8 1022.6 1022.6 0.0
24/04:30am 9.7 7.7 8.5 92 0.6 NE 9 11 5 6 1022.7 1022.7 0.0
24/04:00am 9.6 7.5 8.4 92 0.6 ENE 9 13 5 7 1022.5 1022.5 0.0
24/03:30am 9.7 7.7 8.6 93 0.5 NE 9 11 5 6 1022.7 1022.7 0.0
24/03:29am 9.7 7.7 8.6 93 0.5 NE 9 11 5 6 1022.7 1022.7 0.0
24/03:00am 9.4 6.9 8.2 92 0.6 NNE 11 13 6 7 1022.8 1022.8 0.0
24/02:48am 9.1 6.5 7.9 92 0.6 N 11 13 6 7 1022.9 1022.9 0.0
24/02:30am 8.7 7.7 7.3 91 0.7 NE 2 7 1 4 1023.0 1023.0 0.0
24/02:00am 9.1 8.5 7.4 89 0.8 CALM 0 0 0 0 1022.9 1022.9 0.0
24/01:30am 11.2 10.0 9.5 89 0.9 E 6 9 3 5 1023.3 1023.3 0.0
24/01:00am 10.9 9.1 9.5 91 0.7 ENE 9 11 5 6 1023.4 1023.4 0.0
24/12:30am 10.5 8.5 8.8 89 0.8 ENE 9 11 5 6 1023.9 1023.9 0.0
24/12:00am 10.1 8.4 8.5 90 0.8 NNE 7 9 4 5 1024.0 1024.0 0.0
 
Date/Time
CST
Temp
°C
App
Temp
°C
Dew
Point
Rel
Hum
%
Delta-T
°C
Wind Press
QNH
hPa
Press
MSL
hPa
Rain
since 9 am
mm
Dir
 
Spd
km/h
Gust
km/h
Spd
kts
Gust
kts
23/11:30pm 10.6 8.7 8.9 89 0.8 NNE 9 13 5 7 1023.9 1023.9 0.0
23/11:00pm 11.1 9.2 9.2 88 0.9 NE 9 13 5 7 1023.9 1023.9 0.0
23/10:30pm 11.8 10.1 9.9 88 1.0 ENE 9 11 5 6 1024.1 1024.1 0.0
23/10:00pm 12.0 10.0 10.1 88 1.0 NNE 11 13 6 7 1024.5 1024.5 0.0
23/09:30pm 12.5 11.7 9.7 83 1.4 NW 4 7 2 4 1024.6 1024.6 0.0
23/09:00pm 13.8 12.8 11.1 84 1.4 WSW 7 9 4 5 1024.6 1024.6 0.0
23/08:30pm 13.4 11.6 10.8 84 1.4 W 11 11 6 6 1024.5 1024.5 0.0
23/08:00pm 14.3 12.6 11.3 82 1.6 WNW 11 13 6 7 1024.5 1024.5 0.0
23/07:30pm 14.1 12.8 11.1 82 1.6 NW 9 11 5 6 1024.2 1024.2 0.0
23/07:00pm 13.6 12.2 10.8 83 1.5 NW 9 11 5 6 1024.1 1024.1 0.0
23/06:30pm 13.3 11.7 10.1 81 1.6 NNW 9 11 5 6 1023.7 1023.7 0.0
23/06:00pm 13.8 11.8 10.0 78 2.0 NW 11 13 6 7 1023.4 1023.4 0.0
23/05:30pm 14.4 12.4 10.2 76 2.2 NW 11 11 6 6 1023.2 1023.2 0.0
23/05:00pm 16.3 13.6 10.4 68 3.1 WNW 15 17 8 9 1023.1 1023.1 0.0
23/04:30pm 17.4 14.2 10.1 62 3.9 W 17 22 9 12 1022.8 1022.8 0.0
23/04:00pm 17.8 14.2 9.9 60 4.2 W 19 24 10 13 1022.7 1022.7 0.0
23/03:30pm 18.2 15.0 10.1 59 4.3 W 17 22 9 12 1022.6 1022.6 0.0
23/03:00pm 18.5 15.3 10.1 58 4.5 W 17 22 9 12 1022.6 1022.6 0.0
23/02:30pm 18.7 15.2 10.8 60 4.3 WNW 20 26 11 14 1022.7 1022.7 0.0
23/02:00pm 18.2 14.5 10.1 59 4.3 W 20 24 11 13 1022.8 1022.8 0.0
23/01:30pm 18.6 14.4 11.2 62 4.0 W 24 30 13 16 1022.8 1022.8 0.0
23/01:00pm 17.4 13.0 10.3 63 3.8 W 24 32 13 17 1022.8 1022.8 0.0
23/12:30pm 17.5 13.6 10.9 65 3.5 W 22 28 12 15 1022.9 1022.9 0.0
23/12:00pm 17.4 13.6 11.0 66 3.4 W 22 32 12 17 1023.0 1023.0 0.0
23/11:30am 17.2 12.7 9.9 62 3.8 W 24 32 13 17 1023.5 1023.5 0.0
23/11:00am 17.1 13.2 10.7 66 3.4 W 22 30 12 16 1023.8 1023.8 0.0
23/10:30am 16.6 12.5 10.0 65 3.5 W 22 28 12 15 1023.9 1023.9 0.0

Other Formats:

Comma delimited format used in spreadsheet applications
http://www.bom.gov.au/fwo/IDS60801/IDS60801.95676.axf

JavaScript Object Notation format (JSON) in row-major order
http://www.bom.gov.au/fwo/IDS60801/IDS60801.95676.json